sensor_id;sensor_type;location;lat;lon;timestamp;pressure;altitude;pressure_sealevel;temperature;humidity
39789;BME280;25478;42.626;23.320;2023-02-01T00:01:44;93077.84;;;-0.81;82.71
39789;BME280;25478;42.626;23.320;2023-02-01T00:04:09;93095.63;;;-0.71;83.04
39789;BME280;25478;42.626;23.320;2023-02-01T00:06:35;93098.22;;;-0.63;81.76
39789;BME280;25478;42.626;23.320;2023-02-01T00:09:00;93104.59;;;-0.69;82.21
39789;BME280;25478;42.626;23.320;2023-02-01T00:11:26;93100.19;;;-0.68;82.80
39789;BME280;25478;42.626;23.320;2023-02-01T00:13:52;93099.28;;;-0.64;82.08
39789;BME280;25478;42.626;23.320;2023-02-01T00:16:20;93099.44;;;-0.69;82.27
39789;BME280;25478;42.626;23.320;2023-02-01T00:18:48;93091.53;;;-0.64;81.41
39789;BME280;25478;42.626;23.320;2023-02-01T00:21:16;93093.34;;;-0.64;81.34
39789;BME280;25478;42.626;23.320;2023-02-01T00:23:42;93095.31;;;-0.61;81.89
39789;BME280;25478;42.626;23.320;2023-02-01T00:26:14;93095.78;;;-0.59;80.73
39789;BME280;25478;42.626;23.320;2023-02-01T00:28:40;93090.78;;;-0.64;80.80
39789;BME280;25478;42.626;23.320;2023-02-01T00:31:06;93099.28;;;-0.64;80.85
39789;BME280;25478;42.626;23.320;2023-02-01T00:33:32;93095.63;;;-0.63;80.01
39789;BME280;25478;42.626;23.320;2023-02-01T00:36:03;93093.66;;;-0.66;80.70
39789;BME280;25478;42.626;23.320;2023-02-01T00:38:30;93092.44;;;-0.68;80.77
39789;BME280;25478;42.626;23.320;2023-02-01T00:41:03;93083.91;;;-0.69;80.41
39789;BME280;25478;42.626;23.320;2023-02-01T00:43:31;93086.03;;;-0.71;80.71
39789;BME280;25478;42.626;23.320;2023-02-01T00:45:56;93084.06;;;-0.74;79.63
39789;BME280;25478;42.626;23.320;2023-02-01T00:48:22;93084.22;;;-0.70;79.75
39789;BME280;25478;42.626;23.320;2023-02-01T00:50:47;93087.41;;;-0.82;79.74
39789;BME280;25478;42.626;23.320;2023-02-01T00:53:13;93083.91;;;-0.86;79.55
39789;BME280;25478;42.626;23.320;2023-02-01T00:55:38;93061.38;;;-1.03;79.64
39789;BME280;25478;42.626;23.320;2023-02-01T00:58:04;93072.19;;;-1.01;79.68
39789;BME280;25478;42.626;23.320;2023-02-01T01:00:32;93081.16;;;-0.98;79.91
39789;BME280;25478;42.626;23.320;2023-02-01T01:02:57;93077.94;;;-1.04;79.69
39789;BME280;25478;42.626;23.320;2023-02-01T01:05:23;93077.03;;;-1.08;79.63
39789;BME280;25478;42.626;23.320;2023-02-01T01:07:49;93053.44;;;-1.24;79.35
39789;BME280;25478;42.626;23.320;2023-02-01T01:10:15;93070.03;;;-1.07;79.58
39789;BME280;25478;42.626;23.320;2023-02-01T01:12:40;93077.16;;;-1.04;77.76
39789;BME280;25478;42.626;23.320;2023-02-01T01:15:07;93078.53;;;-1.07;77.71
39789;BME280;25478;42.626;23.320;2023-02-01T01:17:33;93075.66;;;-1.05;77.10
39789;BME280;25478;42.626;23.320;2023-02-01T01:19:58;93051.44;;;-1.18;77.16
39789;BME280;25478;42.626;23.320;2023-02-01T01:22:24;93076.09;;;-1.03;77.06
39789;BME280;25478;42.626;23.320;2023-02-01T01:24:49;93067.91;;;-1.05;76.87
39789;BME280;25478;42.626;23.320;2023-02-01T01:27:15;93070.78;;;-1.07;76.65
39789;BME280;25478;42.626;23.320;2023-02-01T01:29:40;93046.91;;;-1.13;76.15
39789;BME280;25478;42.626;23.320;2023-02-01T01:32:06;93068.06;;;-1.02;75.82
39789;BME280;25478;42.626;23.320;2023-02-01T01:34:31;93066.50;;;-1.11;75.95
39789;BME280;25478;42.626;23.320;2023-02-01T01:36:57;93076.84;;;-1.11;75.95
39789;BME280;25478;42.626;23.320;2023-02-01T01:39:23;93080.81;;;-1.05;75.71
39789;BME280;25478;42.626;23.320;2023-02-01T01:41:48;93092.03;;;-1.10;75.55
39789;BME280;25478;42.626;23.320;2023-02-01T01:44:56;93088.69;;;-1.19;75.97
39789;BME280;25478;42.626;23.320;2023-02-01T01:47:23;93090.16;;;-1.27;76.34
39789;BME280;25478;42.626;23.320;2023-02-01T01:49:50;93081.97;;;-1.29;76.09
39789;BME280;25478;42.626;23.320;2023-02-01T01:52:16;93088.84;;;-1.24;75.83
39789;BME280;25478;42.626;23.320;2023-02-01T01:54:45;93056.13;;;-1.37;75.63
39789;BME280;25478;42.626;23.320;2023-02-01T01:57:18;93089.16;;;-1.17;75.58
39789;BME280;25478;42.626;23.320;2023-02-01T01:59:49;93085.94;;;-1.23;76.18
39789;BME280;25478;42.626;23.320;2023-02-01T02:02:15;93084.44;;;-1.24;75.75
39789;BME280;25478;42.626;23.320;2023-02-01T02:04:41;93083.19;;;-1.26;76.25
39789;BME280;25478;42.626;23.320;2023-02-01T02:07:16;93075.91;;;-1.33;76.12
39789;BME280;25478;42.626;23.320;2023-02-01T02:09:43;93083.63;;;-1.42;76.79
39789;BME280;25478;42.626;23.320;2023-02-01T02:12:09;93071.28;;;-1.45;75.61
39789;BME280;25478;42.626;23.320;2023-02-01T02:14:34;93071.72;;;-1.51;76.24
39789;BME280;25478;42.626;23.320;2023-02-01T02:17:19;93057.72;;;-1.59;76.25
39789;BME280;25478;42.626;23.320;2023-02-01T02:20:09;93063.31;;;-1.65;75.55
39789;BME280;25478;42.626;23.320;2023-02-01T02:23:14;93062.84;;;-1.67;75.68
39789;BME280;25478;42.626;23.320;2023-02-01T02:32:14;93064.50;;;-1.72;73.92
39789;BME280;25478;42.626;23.320;2023-02-01T02:34:55;93068.47;;;-1.65;73.30
39789;BME280;25478;42.626;23.320;2023-02-01T02:37:38;93066.22;;;-1.58;71.66
39789;BME280;25478;42.626;23.320;2023-02-01T02:40:18;93061.84;;;-1.49;70.52
39789;BME280;25478;42.626;23.320;2023-02-01T02:49:02;93061.75;;;-1.35;72.24
39789;BME280;25478;42.626;23.320;2023-02-01T02:51:32;93062.69;;;-1.31;72.14
39789;BME280;25478;42.626;23.320;2023-02-01T02:54:25;93061.47;;;-1.25;71.82
39789;BME280;25478;42.626;23.320;2023-02-01T02:57:26;93054.66;;;-1.21;72.11
39789;BME280;25478;42.626;23.320;2023-02-01T03:00:13;93059.38;;;-1.15;71.63
39789;BME280;25478;42.626;23.320;2023-02-01T03:02:58;93024.34;;;-1.47;71.35
39789;BME280;25478;42.626;23.320;2023-02-01T03:05:45;93064.25;;;-1.13;71.18
39789;BME280;25478;42.626;23.320;2023-02-01T03:08:32;93067.13;;;-1.15;71.50
39789;BME280;25478;42.626;23.320;2023-02-01T03:11:08;93081.25;;;-1.12;71.05
39789;BME280;25478;42.626;23.320;2023-02-01T03:13:56;93037.13;;;-1.42;71.63
39789;BME280;25478;42.626;23.320;2023-02-01T03:18:57;93085.88;;;-1.00;71.27
39789;BME280;25478;42.626;23.320;2023-02-01T03:21:41;93087.38;;;-0.99;70.56
39789;BME280;25478;42.626;23.320;2023-02-01T03:27:24;93092.06;;;-1.01;70.35
39789;BME280;25478;42.626;23.320;2023-02-01T03:32:24;93091.78;;;-1.00;71.18
39789;BME280;25478;42.626;23.320;2023-02-01T03:34:50;93100.31;;;-0.99;71.28
39789;BME280;25478;42.626;23.320;2023-02-01T03:37:23;93098.31;;;-1.02;71.35
39789;BME280;25478;42.626;23.320;2023-02-01T03:40:00;93103.19;;;-1.01;71.41
39789;BME280;25478;42.626;23.320;2023-02-01T03:42:39;93094.19;;;-1.03;72.23
39789;BME280;25478;42.626;23.320;2023-02-01T03:45:23;93095.88;;;-1.07;72.61
39789;BME280;25478;42.626;23.320;2023-02-01T03:47:52;93092.66;;;-1.13;72.90
39789;BME280;25478;42.626;23.320;2023-02-01T03:50:22;93086.00;;;-1.05;72.39
39789;BME280;25478;42.626;23.320;2023-02-01T03:53:05;93049.16;;;-1.28;71.65
39789;BME280;25478;42.626;23.320;2023-02-01T03:55:34;93078.84;;;-1.08;72.09
39789;BME280;25478;42.626;23.320;2023-02-01T03:58:08;93086.44;;;-1.03;72.74
39789;BME280;25478;42.626;23.320;2023-02-01T04:00:36;93081.88;;;-1.06;72.85
39789;BME280;25478;42.626;23.320;2023-02-01T04:03:03;93082.03;;;-1.03;72.11
39789;BME280;25478;42.626;23.320;2023-02-01T04:05:29;93094.19;;;-1.03;72.72
39789;BME280;25478;42.626;23.320;2023-02-01T04:08:00;93088.28;;;-1.04;72.38
39789;BME280;25478;42.626;23.320;2023-02-01T04:10:25;93091.31;;;-1.02;72.71
39789;BME280;25478;42.626;23.320;2023-02-01T04:12:51;93087.97;;;-1.02;72.97
39789;BME280;25478;42.626;23.320;2023-02-01T04:15:17;93089.34;;;-0.96;72.93
39789;BME280;25478;42.626;23.320;2023-02-01T04:17:42;93076.88;;;-1.03;72.98
39789;BME280;25478;42.626;23.320;2023-02-01T04:20:08;93087.69;;;-1.01;73.27
39789;BME280;25478;42.626;23.320;2023-02-01T04:22:34;93094.97;;;-0.94;74.11
39789;BME280;25478;42.626;23.320;2023-02-01T04:25:00;93072.13;;;-1.09;74.80
39789;BME280;25478;42.626;23.320;2023-02-01T04:27:25;93081.13;;;-1.07;74.90
39789;BME280;25478;42.626;23.320;2023-02-01T04:29:51;93096.66;;;-0.90;75.55
39789;BME280;25478;42.626;23.320;2023-02-01T04:32:17;93090.72;;;-0.99;75.56
39789;BME280;25478;42.626;23.320;2023-02-01T04:34:43;93099.72;;;-0.88;75.74
39789;BME280;25478;42.626;23.320;2023-02-01T04:37:08;93094.56;;;-0.79;75.90
39789;BME280;25478;42.626;23.320;2023-02-01T04:39:34;93092.28;;;-0.80;76.17
39789;BME280;25478;42.626;23.320;2023-02-01T04:42:00;93095.75;;;-0.76;76.50
39789;BME280;25478;42.626;23.320;2023-02-01T04:44:25;93095.00;;;-0.77;76.95
39789;BME280;25478;42.626;23.320;2023-02-01T04:46:51;93093.81;;;-0.71;77.09
39789;BME280;25478;42.626;23.320;2023-02-01T04:49:17;93091.53;;;-0.72;77.38
39789;BME280;25478;42.626;23.320;2023-02-01T04:51:42;93099.44;;;-0.69;76.50
39789;BME280;25478;42.626;23.320;2023-02-01T04:54:08;93097.47;;;-0.63;76.75
39789;BME280;25478;42.626;23.320;2023-02-01T04:56:34;93108.56;;;-0.63;77.58
39789;BME280;25478;42.626;23.320;2023-02-01T04:59:02;93106.28;;;-0.64;78.11
39789;BME280;25478;42.626;23.320;2023-02-01T05:01:28;93118.59;;;-0.61;78.05
39789;BME280;25478;42.626;23.320;2023-02-01T05:03:54;93113.44;;;-0.61;77.99
39789;BME280;25478;42.626;23.320;2023-02-01T05:06:20;93121.34;;;-0.58;78.29
39789;BME280;25478;42.626;23.320;2023-02-01T05:08:46;93114.19;;;-0.52;78.50
39789;BME280;25478;42.626;23.320;2023-02-01T05:11:12;93120.44;;;-0.62;77.93
39789;BME280;25478;42.626;23.320;2023-02-01T05:13:58;93135.66;;;-0.43;78.09
39789;BME280;25478;42.626;23.320;2023-02-01T05:16:24;93137.19;;;-0.42;77.73
39789;BME280;25478;42.626;23.320;2023-02-01T05:18:49;93143.72;;;-0.44;77.88
39789;BME280;25478;42.626;23.320;2023-02-01T05:21:15;93138.84;;;-0.46;78.43
39789;BME280;25478;42.626;23.320;2023-02-01T05:23:40;93121.94;;;-0.52;78.38
39789;BME280;25478;42.626;23.320;2023-02-01T05:26:25;93118.59;;;-0.52;78.46
39789;BME280;25478;42.626;23.320;2023-02-01T05:28:51;93104.47;;;-0.55;78.74
39789;BME280;25478;42.626;23.320;2023-02-01T05:31:16;93132.78;;;-0.41;78.92
39789;BME280;25478;42.626;23.320;2023-02-01T05:33:42;93132.94;;;-0.38;79.43
39789;BME280;25478;42.626;23.320;2023-02-01T05:36:08;93119.38;;;-0.43;78.93
39789;BME280;25478;42.626;23.320;2023-02-01T05:38:33;93131.84;;;-0.37;78.82
39789;BME280;25478;42.626;23.320;2023-02-01T05:40:59;93131.56;;;-0.35;78.84
39789;BME280;25478;42.626;23.320;2023-02-01T05:43:24;93124.72;;;-0.31;78.95
39789;BME280;25478;42.626;23.320;2023-02-01T05:45:51;93116.34;;;-0.28;78.10
39789;BME280;25478;42.626;23.320;2023-02-01T05:48:17;93114.97;;;-0.34;77.87
39789;BME280;25478;42.626;23.320;2023-02-01T05:50:43;93129.59;;;-0.21;77.84
39789;BME280;25478;42.626;23.320;2023-02-01T05:53:09;93125.03;;;-0.15;76.98
39789;BME280;25478;42.626;23.320;2023-02-01T05:55:36;93133.25;;;-0.13;76.65
39789;BME280;25478;42.626;23.320;2023-02-01T05:58:01;93125.34;;;-0.17;76.34
39789;BME280;25478;42.626;23.320;2023-02-01T06:00:27;93129.28;;;-0.11;76.17
39789;BME280;25478;42.626;23.320;2023-02-01T06:02:52;93134.13;;;-0.01;75.76
39789;BME280;25478;42.626;23.320;2023-02-01T06:05:19;93135.38;;;0.02;75.16
39789;BME280;25478;42.626;23.320;2023-02-01T06:07:44;93137.78;;;-0.02;75.24
39789;BME280;25478;42.626;23.320;2023-02-01T06:10:10;93126.09;;;0.01;74.66
39789;BME280;25478;42.626;23.320;2023-02-01T06:12:36;93143.72;;;0.08;73.60
39789;BME280;25478;42.626;23.320;2023-02-01T06:15:01;93143.44;;;0.09;73.33
39789;BME280;25478;42.626;23.320;2023-02-01T06:17:27;93139.28;;;0.17;72.37
39789;BME280;25478;42.626;23.320;2023-02-01T06:19:53;93140.97;;;0.21;72.01
39789;BME280;25478;42.626;23.320;2023-02-01T06:22:18;93132.59;;;0.16;71.32
39789;BME280;25478;42.626;23.320;2023-02-01T06:24:43;93150.69;;;0.24;71.64
39789;BME280;25478;42.626;23.320;2023-02-01T06:27:09;93147.97;;;0.30;70.99
39789;BME280;25478;42.626;23.320;2023-02-01T06:29:35;93133.06;;;0.18;70.42
39789;BME280;25478;42.626;23.320;2023-02-01T06:32:01;93161.81;;;0.34;70.46
39789;BME280;25478;42.626;23.320;2023-02-01T06:34:27;93159.22;;;0.34;70.70
39789;BME280;25478;42.626;23.320;2023-02-01T06:36:52;93157.56;;;0.38;69.84
39789;BME280;25478;42.626;23.320;2023-02-01T06:39:18;93165.00;;;0.39;70.05
39789;BME280;25478;42.626;23.320;2023-02-01T06:41:48;93170.78;;;0.45;69.81
39789;BME280;25478;42.626;23.320;2023-02-01T06:44:14;93172.16;;;0.51;68.77
39789;BME280;25478;42.626;23.320;2023-02-01T06:46:40;93162.25;;;0.53;68.52
39789;BME280;25478;42.626;23.320;2023-02-01T06:49:05;93165.72;;;0.57;67.77
39789;BME280;25478;42.626;23.320;2023-02-01T06:51:31;93161.63;;;0.56;67.83
39789;BME280;25478;42.626;23.320;2023-02-01T06:53:57;93169.56;;;0.60;67.58
39789;BME280;25478;42.626;23.320;2023-02-01T06:56:22;93160.72;;;0.61;67.10
39789;BME280;25478;42.626;23.320;2023-02-01T06:58:49;93170.47;;;0.55;67.59
39789;BME280;25478;42.626;23.320;2023-02-01T07:01:15;93156.63;;;0.42;67.60
39789;BME280;25478;42.626;23.320;2023-02-01T07:03:40;93173.50;;;0.57;67.59
39789;BME280;25478;42.626;23.320;2023-02-01T07:06:06;93174.44;;;0.52;67.73
39789;BME280;25478;42.626;23.320;2023-02-01T07:08:35;93187.22;;;0.57;67.75
39789;BME280;25478;42.626;23.320;2023-02-01T07:11:02;93201.41;;;0.60;68.00
39789;BME280;25478;42.626;23.320;2023-02-01T07:13:28;93194.38;;;0.61;67.68
39789;BME280;25478;42.626;23.320;2023-02-01T07:15:53;93197.56;;;0.66;67.67
39789;BME280;25478;42.626;23.320;2023-02-01T07:18:19;93199.06;;;0.67;67.29
39789;BME280;25478;42.626;23.320;2023-02-01T07:20:49;93213.41;;;0.73;67.57
39789;BME280;25478;42.626;23.320;2023-02-01T07:23:15;93200.31;;;0.70;66.98
39789;BME280;25478;42.626;23.320;2023-02-01T07:25:40;93211.88;;;0.72;67.24
39789;BME280;25478;42.626;23.320;2023-02-01T07:28:06;93203.31;;;0.80;67.04
39789;BME280;25478;42.626;23.320;2023-02-01T07:30:31;93204.84;;;0.81;67.32
39789;BME280;25478;42.626;23.320;2023-02-01T07:32:57;93210.00;;;0.90;66.67
39789;BME280;25478;42.626;23.320;2023-02-01T07:35:27;93204.81;;;0.90;66.32
39789;BME280;25478;42.626;23.320;2023-02-01T07:37:52;93212.13;;;0.97;66.35
39789;BME280;25478;42.626;23.320;2023-02-01T07:40:18;93214.84;;;1.00;65.88
39789;BME280;25478;42.626;23.320;2023-02-01T07:42:44;93213.28;;;1.08;65.21
39789;BME280;25478;42.626;23.320;2023-02-01T07:45:09;93190.94;;;0.95;65.18
39789;BME280;25478;42.626;23.320;2023-02-01T07:47:35;93215.28;;;1.11;65.38
39789;BME280;25478;42.626;23.320;2023-02-01T07:50:00;93213.16;;;1.04;64.85
39789;BME280;25478;42.626;23.320;2023-02-01T07:52:28;93223.63;;;1.17;64.70
39789;BME280;25478;42.626;23.320;2023-02-01T07:54:54;93234.75;;;1.17;64.75
39789;BME280;25478;42.626;23.320;2023-02-01T07:57:19;93239.94;;;1.17;63.90
39789;BME280;25478;42.626;23.320;2023-02-01T07:59:45;93247.44;;;1.19;64.17
39789;BME280;25478;42.626;23.320;2023-02-01T08:02:37;93241.63;;;1.22;64.10
39789;BME280;25478;42.626;23.320;2023-02-01T08:05:03;93230.94;;;1.23;63.50
39789;BME280;25478;42.626;23.320;2023-02-01T08:07:30;93224.66;;;1.33;63.31
39789;BME280;25478;42.626;23.320;2023-02-01T08:09:56;93234.88;;;1.29;63.20
39789;BME280;25478;42.626;23.320;2023-02-01T08:12:21;93255.44;;;1.34;63.41
39789;BME280;25478;42.626;23.320;2023-02-01T08:14:47;93243.41;;;1.38;62.89
39789;BME280;25478;42.626;23.320;2023-02-01T08:17:12;93250.53;;;1.41;62.86
39789;BME280;25478;42.626;23.320;2023-02-01T08:19:38;93250.75;;;1.36;63.36
39789;BME280;25478;42.626;23.320;2023-02-01T08:22:03;93243.09;;;1.40;63.88
39789;BME280;25478;42.626;23.320;2023-02-01T08:24:33;93237.84;;;1.49;63.24
39789;BME280;25478;42.626;23.320;2023-02-01T08:27:00;93238.44;;;1.54;62.75
39789;BME280;25478;42.626;23.320;2023-02-01T08:29:26;93235.22;;;1.57;62.57
39789;BME280;25478;42.626;23.320;2023-02-01T08:31:52;93233.38;;;1.58;62.43
39789;BME280;25478;42.626;23.320;2023-02-01T08:34:19;93232.00;;;1.60;62.70
39789;BME280;25478;42.626;23.320;2023-02-01T08:36:45;93240.69;;;1.64;62.47
39789;BME280;25478;42.626;23.320;2023-02-01T08:39:11;93251.81;;;1.65;62.64
39789;BME280;25478;42.626;23.320;2023-02-01T08:41:37;93245.22;;;1.67;62.54
39789;BME280;25478;42.626;23.320;2023-02-01T08:44:02;93245.50;;;1.75;62.49
39789;BME280;25478;42.626;23.320;2023-02-01T08:46:28;93249.88;;;1.83;63.01
39789;BME280;25478;42.626;23.320;2023-02-01T08:48:53;93244.03;;;1.94;61.87
39789;BME280;25478;42.626;23.320;2023-02-01T08:51:21;93245.34;;;2.01;62.11
39789;BME280;25478;42.626;23.320;2023-02-01T08:53:47;93247.28;;;2.12;62.19
39789;BME280;25478;42.626;23.320;2023-02-01T08:56:14;93240.03;;;2.18;61.92
39789;BME280;25478;42.626;23.320;2023-02-01T08:58:41;93240.31;;;2.25;62.01
39789;BME280;25478;42.626;23.320;2023-02-01T09:01:09;93236.88;;;2.33;61.13
39789;BME280;25478;42.626;23.320;2023-02-01T09:03:35;93242.25;;;2.49;61.13
39789;BME280;25478;42.626;23.320;2023-02-01T09:06:02;93232.97;;;2.60;60.14
39789;BME280;25478;42.626;23.320;2023-02-01T09:08:28;93230.66;;;2.46;59.51
39789;BME280;25478;42.626;23.320;2023-02-01T09:11:01;93254.75;;;2.56;59.27
39789;BME280;25478;42.626;23.320;2023-02-01T09:13:27;93254.59;;;2.52;60.10
39789;BME280;25478;42.626;23.320;2023-02-01T09:15:53;93244.47;;;2.59;59.56
39789;BME280;25478;42.626;23.320;2023-02-01T09:18:18;93240.03;;;2.60;59.48
39789;BME280;25478;42.626;23.320;2023-02-01T09:20:44;93254.16;;;2.71;59.31
39789;BME280;25478;42.626;23.320;2023-02-01T09:23:09;93259.59;;;2.78;59.42
39789;BME280;25478;42.626;23.320;2023-02-01T09:25:37;93259.81;;;2.85;59.17
39789;BME280;25478;42.626;23.320;2023-02-01T09:28:03;93249.88;;;2.87;58.68
39789;BME280;25478;42.626;23.320;2023-02-01T09:30:32;93252.03;;;2.85;58.91
39789;BME280;25478;42.626;23.320;2023-02-01T09:32:57;93260.28;;;2.87;58.30
39789;BME280;25478;42.626;23.320;2023-02-01T09:35:23;93255.09;;;2.87;58.75
39789;BME280;25478;42.626;23.320;2023-02-01T09:37:48;93250.00;;;2.91;58.28
39789;BME280;25478;42.626;23.320;2023-02-01T09:40:15;93251.94;;;2.94;57.94
39789;BME280;25478;42.626;23.320;2023-02-01T09:48:13;93213.09;;;2.76;56.94
39789;BME280;25478;42.626;23.320;2023-02-01T09:50:44;93235.13;;;2.79;57.43
39789;BME280;25478;42.626;23.320;2023-02-01T09:53:33;93227.75;;;2.81;56.70
39789;BME280;25478;42.626;23.320;2023-02-01T09:56:06;93219.97;;;2.81;56.62
39789;BME280;25478;42.626;23.320;2023-02-01T09:58:44;93210.84;;;2.75;56.36
39789;BME280;25478;42.626;23.320;2023-02-01T10:01:23;93211.91;;;2.74;56.65
39789;BME280;25478;42.626;23.320;2023-02-01T10:03:51;93202.41;;;2.78;56.44
39789;BME280;25478;42.626;23.320;2023-02-01T10:11:45;93217.22;;;2.77;56.25
39789;BME280;25478;42.626;23.320;2023-02-01T10:21:55;93169.72;;;2.44;57.03
39789;BME280;25478;42.626;23.320;2023-02-01T10:27:18;93177.78;;;2.63;56.90
39789;BME280;25478;42.626;23.320;2023-02-01T10:29:53;93175.50;;;2.62;56.51
39789;BME280;25478;42.626;23.320;2023-02-01T10:32:23;93177.66;;;2.60;56.42
39789;BME280;25478;42.626;23.320;2023-02-01T10:34:58;93178.28;;;2.57;56.70
39789;BME280;25478;42.626;23.320;2023-02-01T10:39:55;93173.91;;;2.81;55.76
39789;BME280;25478;42.626;23.320;2023-02-01T10:42:26;93164.66;;;3.05;55.18
39789;BME280;25478;42.626;23.320;2023-02-01T10:44:54;93163.03;;;3.25;55.47
39789;BME280;25478;42.626;23.320;2023-02-01T10:47:20;93162.81;;;3.54;54.63
39789;BME280;25478;42.626;23.320;2023-02-01T10:52:32;93169.03;;;3.90;54.38
39789;BME280;25478;42.626;23.320;2023-02-01T10:58:20;93171.00;;;3.68;54.50
39789;BME280;25478;42.626;23.320;2023-02-01T11:00:52;93168.78;;;3.55;54.01
39789;BME280;25478;42.626;23.320;2023-02-01T11:03:20;93171.78;;;3.45;54.38
39789;BME280;25478;42.626;23.320;2023-02-01T11:05:47;93169.44;;;3.39;54.36
39789;BME280;25478;42.626;23.320;2023-02-01T11:08:16;93167.47;;;3.49;53.95
39789;BME280;25478;42.626;23.320;2023-02-01T11:10:43;93170.38;;;3.59;53.50
39789;BME280;25478;42.626;23.320;2023-02-01T11:13:17;93161.81;;;3.71;53.22
39789;BME280;25478;42.626;23.320;2023-02-01T11:15:45;93157.53;;;3.91;52.65
39789;BME280;25478;42.626;23.320;2023-02-01T11:18:17;93150.13;;;4.05;52.36
39789;BME280;25478;42.626;23.320;2023-02-01T11:20:44;93156.50;;;4.08;51.98
39789;BME280;25478;42.626;23.320;2023-02-01T11:23:16;93144.53;;;4.19;52.54
39789;BME280;25478;42.626;23.320;2023-02-01T11:25:57;93142.69;;;4.19;52.73
39789;BME280;25478;42.626;23.320;2023-02-01T11:28:31;93109.56;;;4.20;52.05
39789;BME280;25478;42.626;23.320;2023-02-01T11:31:02;93100.81;;;4.12;51.40
39789;BME280;25478;42.626;23.320;2023-02-01T11:33:32;93126.16;;;4.28;51.12
39789;BME280;25478;42.626;23.320;2023-02-01T11:36:08;93128.31;;;4.26;51.39
39789;BME280;25478;42.626;23.320;2023-02-01T11:38:37;93124.75;;;4.30;50.88
39789;BME280;25478;42.626;23.320;2023-02-01T11:41:20;93132.09;;;4.28;51.64
39789;BME280;25478;42.626;23.320;2023-02-01T11:43:55;93123.72;;;4.35;50.57
39789;BME280;25478;42.626;23.320;2023-02-01T11:46:24;93141.88;;;4.31;51.12
39789;BME280;25478;42.626;23.320;2023-02-01T11:48:53;93128.94;;;4.35;51.33
39789;BME280;25478;42.626;23.320;2023-02-01T11:51:31;93130.72;;;4.31;51.83
39789;BME280;25478;42.626;23.320;2023-02-01T11:54:20;93124.16;;;4.37;50.91
39789;BME280;25478;42.626;23.320;2023-02-01T11:57:21;93113.44;;;4.26;52.09
39789;BME280;25478;42.626;23.320;2023-02-01T12:06:00;93077.25;;;4.09;52.38
39789;BME280;25478;42.626;23.320;2023-02-01T12:29:01;93090.09;;;4.45;49.78
39789;BME280;25478;42.626;23.320;2023-02-01T12:36:35;93108.69;;;4.44;50.57
39789;BME280;25478;42.626;23.320;2023-02-01T12:50:06;93117.59;;;4.43;49.88
39789;BME280;25478;42.626;23.320;2023-02-01T12:55:55;93119.41;;;4.55;50.04
39789;BME280;25478;42.626;23.320;2023-02-01T12:58:41;93096.72;;;4.55;49.38
39789;BME280;25478;42.626;23.320;2023-02-01T13:06:24;93104.53;;;4.27;49.70
39789;BME280;25478;42.626;23.320;2023-02-01T13:09:15;93100.56;;;4.17;49.92
39789;BME280;25478;42.626;23.320;2023-02-01T13:11:45;93095.28;;;4.14;50.30
39789;BME280;25478;42.626;23.320;2023-02-01T13:17:31;93094.56;;;4.01;50.51
39789;BME280;25478;42.626;23.320;2023-02-01T13:22:39;93091.66;;;3.90;49.60
39789;BME280;25478;42.626;23.320;2023-02-01T13:25:29;93104.16;;;3.85;49.62
39789;BME280;25478;42.626;23.320;2023-02-01T13:33:40;93107.22;;;3.75;49.82
39789;BME280;25478;42.626;23.320;2023-02-01T13:41:56;93102.34;;;3.73;49.24
39789;BME280;25478;42.626;23.320;2023-02-01T13:44:38;93109.00;;;3.58;49.88
39789;BME280;25478;42.626;23.320;2023-02-01T13:47:16;93116.72;;;3.55;49.94
39789;BME280;25478;42.626;23.320;2023-02-01T13:49:44;93109.25;;;3.53;49.84
39789;BME280;25478;42.626;23.320;2023-02-01T13:52:40;93117.34;;;3.52;49.50
39789;BME280;25478;42.626;23.320;2023-02-01T13:57:40;93103.78;;;3.58;49.73
39789;BME280;25478;42.626;23.320;2023-02-01T14:10:54;93111.53;;;3.83;50.10
39789;BME280;25478;42.626;23.320;2023-02-01T14:13:40;93098.19;;;3.84;50.08
39789;BME280;25478;42.626;23.320;2023-02-01T14:21:22;93091.59;;;3.87;50.48
39789;BME280;25478;42.626;23.320;2023-02-01T14:26:25;93070.97;;;3.82;50.54
39789;BME280;25478;42.626;23.320;2023-02-01T14:31:37;93056.31;;;3.77;50.85
39789;BME280;25478;42.626;23.320;2023-02-01T14:34:24;93057.84;;;3.78;50.73
39789;BME280;25478;42.626;23.320;2023-02-01T14:37:06;93049.25;;;3.62;50.68
39789;BME280;25478;42.626;23.320;2023-02-01T14:42:13;93070.72;;;3.59;50.90
39789;BME280;25478;42.626;23.320;2023-02-01T14:44:41;93060.75;;;3.49;51.46
39789;BME280;25478;42.626;23.320;2023-02-01T14:52:35;93080.44;;;3.22;52.26
39789;BME280;25478;42.626;23.320;2023-02-01T14:55:05;93102.97;;;3.30;52.66
39789;BME280;25478;42.626;23.320;2023-02-01T14:57:35;93109.56;;;3.27;53.05
39789;BME280;25478;42.626;23.320;2023-02-01T15:00:16;93108.38;;;3.25;53.00
39789;BME280;25478;42.626;23.320;2023-02-01T15:02:43;93112.84;;;3.24;53.21
39789;BME280;25478;42.626;23.320;2023-02-01T15:05:29;93098.53;;;3.18;53.16
39789;BME280;25478;42.626;23.320;2023-02-01T15:07:58;93099.41;;;3.22;53.03
39789;BME280;25478;42.626;23.320;2023-02-01T15:10:26;93077.94;;;3.13;52.93
39789;BME280;25478;42.626;23.320;2023-02-01T15:12:52;93093.00;;;3.20;52.98
39789;BME280;25478;42.626;23.320;2023-02-01T15:15:20;93092.56;;;3.18;52.31
39789;BME280;25478;42.626;23.320;2023-02-01T15:17:55;93090.84;;;3.22;52.54
39789;BME280;25478;42.626;23.320;2023-02-01T15:20:27;93099.28;;;3.19;52.21
39789;BME280;25478;42.626;23.320;2023-02-01T15:23:04;93088.44;;;3.17;51.84
39789;BME280;25478;42.626;23.320;2023-02-01T15:25:37;93088.88;;;3.19;52.62
39789;BME280;25478;42.626;23.320;2023-02-01T15:28:04;93102.22;;;3.17;52.44
39789;BME280;25478;42.626;23.320;2023-02-01T15:30:33;93083.56;;;3.15;52.62
39789;BME280;25478;42.626;23.320;2023-02-01T15:33:17;93080.75;;;3.08;52.67
39789;BME280;25478;42.626;23.320;2023-02-01T15:35:48;93047.59;;;2.93;52.66
39789;BME280;25478;42.626;23.320;2023-02-01T15:41:28;93069.38;;;3.00;53.33
39789;BME280;25478;42.626;23.320;2023-02-01T15:46:33;93065.69;;;3.01;52.04